createdAt,value
2022-09-28T00:01:53.177Z,8.86
2022-09-28T00:04:21.563Z,8.99
2022-09-28T00:06:49.598Z,8.92
2022-09-28T00:09:18.896Z,8.64
2022-09-28T00:11:48.335Z,9.01
2022-09-28T00:14:16.374Z,9.01
2022-09-28T00:16:44.874Z,9.01
2022-09-28T00:19:13.522Z,9.08
2022-09-28T00:21:42.384Z,8.73
2022-09-28T00:24:22.962Z,8.77
2022-09-28T00:26:55.796Z,8.70
2022-09-28T00:29:27.086Z,8.89
2022-09-28T00:32:00.454Z,9.06
2022-09-28T00:34:31.728Z,8.89
2022-09-28T00:36:59.940Z,8.87
2022-09-28T00:39:28.411Z,8.92
2022-09-28T00:41:57.765Z,9.17
2022-09-28T00:44:39.588Z,9.14
2022-09-28T00:47:16.859Z,8.90
2022-09-28T00:49:46.086Z,8.94
2022-09-28T00:52:16.666Z,8.97
2022-09-28T00:54:48.155Z,9.05
2022-09-28T00:57:17.570Z,8.89
2022-09-28T00:59:45.694Z,8.87
2022-09-28T01:02:13.833Z,8.80
2022-09-28T01:04:42.588Z,8.84
2022-09-28T01:07:11.223Z,8.94
2022-09-28T01:09:40.609Z,8.82
2022-09-28T01:12:09.009Z,9.04
2022-09-28T01:14:38.727Z,9.36
2022-09-28T01:20:08.441Z,9.11
2022-09-28T01:22:48.861Z,8.99
2022-09-28T01:25:24.987Z,8.99
2022-09-28T01:27:57.176Z,8.97
2022-09-28T01:30:25.300Z,8.94
2022-09-28T01:32:57.047Z,9.00
2022-09-28T01:35:27.959Z,9.08
2022-09-28T01:37:58.052Z,9.03
2022-09-28T01:40:27.397Z,9.09
2022-09-28T01:43:00.299Z,9.18
2022-09-28T01:45:31.009Z,8.99
2022-09-28T01:48:04.420Z,9.22
2022-09-28T01:50:36.171Z,9.57
2022-09-28T01:53:08.142Z,9.05
2022-09-28T01:55:39.801Z,9.58
2022-09-28T01:58:13.268Z,9.43
2022-09-28T02:00:45.188Z,9.38
2022-09-28T02:03:20.961Z,9.50
2022-09-28T02:06:00.482Z,9.58
2022-09-28T02:08:32.668Z,9.47
2022-09-28T02:11:05.859Z,9.34
2022-09-28T02:13:38.922Z,9.56
2022-09-28T02:16:10.741Z,9.38
2022-09-28T02:18:38.829Z,9.39
2022-09-28T02:21:08.354Z,9.43
2022-09-28T02:23:37.139Z,9.61
2022-09-28T02:26:08.014Z,9.65
2022-09-28T02:28:39.186Z,9.77
2022-09-28T02:31:07.318Z,9.60
2022-09-28T02:33:37.601Z,9.74
2022-09-28T02:36:06.616Z,9.52
2022-09-28T02:38:39.277Z,9.61
2022-09-28T02:41:10.491Z,9.71
2022-09-28T02:43:44.362Z,9.87
2022-09-28T02:46:24.530Z,9.98
2022-09-28T02:49:20.367Z,10.13
2022-09-28T02:51:57.237Z,9.97
2022-09-28T02:54:44.098Z,10.30
2022-09-28T02:57:17.898Z,10.11
2022-09-28T02:59:50.443Z,10.20
2022-09-28T03:02:26.743Z,10.43
2022-09-28T03:05:03.861Z,10.26
2022-09-28T03:07:35.198Z,9.91
2022-09-28T03:10:06.610Z,9.23
2022-09-28T03:12:34.623Z,9.54
2022-09-28T03:15:14.121Z,9.62
2022-09-28T03:17:43.054Z,9.59
2022-09-28T03:20:11.370Z,9.34
2022-09-28T03:22:39.423Z,9.64
2022-09-28T03:25:08.971Z,9.60
2022-09-28T03:27:40.189Z,9.32
2022-09-28T03:30:09.727Z,9.47
2022-09-28T03:32:40.043Z,9.48
2022-09-28T03:35:09.630Z,9.22
2022-09-28T03:37:37.650Z,9.30
2022-09-28T03:40:08.274Z,9.41
2022-09-28T03:42:36.964Z,9.46
2022-09-28T03:45:05.738Z,9.61
2022-09-28T03:47:34.114Z,9.53
2022-09-28T03:50:03.581Z,9.47
2022-09-28T03:52:31.599Z,9.29
2022-09-28T03:54:59.593Z,9.48
2022-09-28T03:57:28.192Z,9.34
2022-09-28T03:59:56.104Z,9.42
2022-09-28T04:02:24.310Z,9.56
2022-09-28T04:04:52.366Z,9.41
2022-09-28T04:07:26.970Z,9.57
2022-09-28T04:09:58.243Z,9.49
2022-09-28T04:12:28.601Z,9.79
2022-09-28T04:14:56.570Z,9.64
2022-09-28T04:17:24.675Z,9.86
2022-09-28T04:19:53.213Z,9.68
2022-09-28T04:22:40.193Z,9.52
2022-09-28T04:25:09.019Z,9.25
2022-09-28T04:27:54.797Z,9.38
2022-09-28T04:30:23.129Z,9.57
2022-09-28T04:32:51.418Z,9.62
2022-09-28T04:35:21.543Z,9.46
2022-09-28T04:37:50.990Z,9.49
2022-09-28T04:40:18.960Z,9.56
2022-09-28T04:42:53.800Z,9.45
2022-09-28T04:45:21.778Z,9.44
2022-09-28T04:47:50.667Z,9.30
2022-09-28T04:50:32.070Z,9.09
2022-09-28T04:53:20.915Z,9.21
2022-09-28T04:55:55.968Z,9.09
2022-09-28T04:58:24.498Z,9.40
2022-09-28T05:00:53.315Z,9.30
2022-09-28T05:03:39.727Z,9.16
2022-09-28T05:06:28.520Z,9.01
2022-09-28T05:09:04.074Z,9.01
2022-09-28T05:11:34.367Z,9.32
2022-09-28T05:14:02.815Z,9.16
2022-09-28T05:16:33.639Z,9.32
2022-09-28T05:19:36.962Z,9.41
2022-09-28T05:22:07.186Z,9.48
2022-09-28T05:24:41.019Z,9.31
2022-09-28T05:27:10.077Z,9.15
2022-09-28T05:29:38.091Z,9.30
2022-09-28T05:32:24.947Z,9.23
2022-09-28T05:35:12.883Z,9.18
2022-09-28T05:37:46.808Z,9.40
2022-09-28T05:40:19.359Z,9.52
2022-09-28T05:42:47.403Z,9.50
2022-09-28T05:45:17.865Z,9.81
2022-09-28T05:47:47.102Z,9.53
2022-09-28T05:50:19.256Z,9.92
2022-09-28T05:52:47.847Z,9.64
2022-09-28T05:55:15.920Z,9.69
2022-09-28T05:57:45.753Z,9.64
2022-09-28T06:00:14.033Z,9.66
2022-09-28T06:02:56.021Z,9.65
2022-09-28T06:05:24.390Z,9.64
2022-09-28T06:07:52.410Z,9.39
2022-09-28T06:10:20.676Z,9.68
2022-09-28T06:12:52.621Z,9.56
2022-09-28T06:15:23.062Z,9.55
2022-09-28T06:17:56.364Z,9.74
2022-09-28T06:20:50.221Z,9.75
2022-09-28T06:23:20.643Z,9.64
2022-09-28T06:25:51.044Z,9.81
2022-09-28T06:28:20.728Z,9.90
2022-09-28T06:30:48.788Z,9.55
2022-09-28T06:33:19.090Z,9.88
2022-09-28T06:35:49.427Z,9.87
2022-09-28T06:38:17.457Z,10.00
2022-09-28T06:40:45.610Z,10.02
2022-09-28T06:43:15.147Z,9.69
2022-09-28T06:46:03.849Z,9.85
2022-09-28T06:48:50.063Z,9.97
2022-09-28T06:51:50.205Z,10.00
2022-09-28T06:54:38.012Z,9.88
2022-09-28T06:57:22.670Z,9.86
2022-09-28T06:59:50.735Z,10.01
2022-09-28T07:02:20.170Z,9.99
2022-09-28T07:05:03.749Z,9.97
2022-09-28T07:07:50.390Z,9.98
2022-09-28T07:10:37.135Z,10.15
2022-09-28T07:16:14.028Z,10.30
2022-09-28T07:18:43.468Z,10.51
2022-09-28T07:21:24.387Z,10.44
2022-09-28T07:23:56.619Z,10.67
2022-09-28T07:26:25.586Z,10.42
2022-09-28T07:28:59.742Z,10.27
2022-09-28T07:31:50.715Z,10.27
2022-09-28T07:34:28.964Z,10.32
2022-09-28T07:37:06.493Z,10.59
2022-09-28T07:39:56.945Z,10.24
2022-09-28T07:42:30.028Z,10.06
2022-09-28T07:44:58.158Z,9.89
2022-09-28T07:47:32.248Z,9.94
2022-09-28T07:50:21.974Z,10.52
2022-09-28T07:53:01.494Z,10.19
2022-09-28T07:55:51.039Z,10.42
2022-09-28T07:58:35.337Z,10.59
2022-09-28T08:01:27.511Z,10.17
2022-09-28T08:03:57.863Z,10.22
2022-09-28T08:06:27.210Z,10.45
2022-09-28T08:08:56.843Z,10.57
2022-09-28T08:11:34.772Z,10.24
2022-09-28T08:14:25.042Z,10.32
2022-09-28T08:17:03.845Z,10.11
2022-09-28T08:20:01.243Z,10.24
2022-09-28T08:22:32.231Z,10.30
2022-09-28T08:25:01.214Z,10.14
2022-09-28T08:27:31.990Z,9.98
2022-09-28T08:30:00.114Z,10.09
2022-09-28T08:32:53.116Z,10.21
2022-09-28T08:35:40.111Z,10.74
2022-09-28T08:38:28.926Z,10.57
2022-09-28T08:41:18.444Z,10.98
2022-09-28T08:44:13.672Z,11.26
2022-09-28T08:47:03.034Z,11.09
2022-09-28T08:49:51.323Z,11.44
2022-09-28T08:52:42.293Z,11.67
2022-09-28T08:55:39.717Z,11.47
2022-09-28T08:58:11.872Z,11.73
2022-09-28T09:00:43.441Z,11.06
2022-09-28T09:03:13.161Z,10.93
2022-09-28T09:05:48.876Z,11.18
2022-09-28T09:08:27.939Z,11.23
2022-09-28T09:11:03.231Z,11.13
2022-09-28T09:13:53.566Z,10.93
2022-09-28T09:16:36.790Z,11.59
2022-09-28T09:19:27.942Z,11.21
2022-09-28T09:22:24.895Z,11.26
2022-09-28T09:24:56.957Z,11.26
2022-09-28T09:27:41.298Z,11.27
2022-09-28T09:30:11.411Z,11.31
2022-09-28T09:32:49.283Z,11.57
2022-09-28T09:35:31.423Z,11.46
2022-09-28T09:38:24.955Z,11.44
2022-09-28T09:41:16.650Z,11.17
2022-09-28T09:44:20.936Z,10.97
2022-09-28T09:46:55.973Z,11.20
2022-09-28T09:49:37.767Z,11.79
2022-09-28T09:52:11.550Z,11.38
2022-09-28T09:54:43.842Z,11.63
2022-09-28T09:57:20.049Z,11.68
2022-09-28T10:00:02.919Z,11.41
2022-09-28T10:02:51.878Z,11.22
2022-09-28T10:05:35.699Z,11.38
2022-09-28T10:08:05.293Z,11.40
2022-09-28T10:10:35.149Z,11.52
2022-09-28T10:13:10.159Z,12.01
2022-09-28T10:15:41.482Z,12.25
2022-09-28T10:18:21.723Z,12.42
2022-09-28T10:21:12.469Z,12.80
2022-09-28T10:23:51.171Z,12.33
2022-09-28T10:26:25.232Z,13.06
2022-09-28T10:28:56.260Z,12.77
2022-09-28T10:31:42.981Z,12.15
2022-09-28T10:34:35.488Z,12.28
2022-09-28T10:37:11.442Z,12.53
2022-09-28T10:39:58.245Z,12.38
2022-09-28T10:42:31.187Z,12.59
2022-09-28T10:45:04.526Z,12.40
2022-09-28T10:47:37.947Z,12.21
2022-09-28T10:50:20.704Z,12.44
2022-09-28T10:52:49.352Z,12.18
2022-09-28T10:55:56.872Z,12.44
2022-09-28T10:58:28.110Z,12.55
2022-09-28T11:01:01.485Z,12.84
2022-09-28T11:03:30.714Z,12.82
2022-09-28T11:06:05.846Z,12.79
2022-09-28T11:08:37.373Z,12.66
2022-09-28T11:11:08.253Z,12.54
2022-09-28T11:13:43.930Z,12.77
2022-09-28T11:16:20.863Z,12.45
2022-09-28T11:18:50.012Z,12.79
2022-09-28T11:21:22.711Z,12.39
2022-09-28T11:23:58.052Z,12.70
2022-09-28T11:26:26.184Z,12.08
2022-09-28T11:28:54.969Z,12.44
2022-09-28T11:31:34.396Z,12.00
2022-09-28T11:34:07.058Z,12.56
2022-09-28T11:36:52.720Z,12.51
2022-09-28T11:39:28.676Z,12.91
2022-09-28T11:42:16.066Z,12.82
2022-09-28T11:44:46.886Z,12.80
2022-09-28T11:47:38.227Z,12.90
2022-09-28T11:50:09.088Z,13.24
2022-09-28T11:52:44.606Z,13.12
2022-09-28T11:55:15.422Z,12.98
2022-09-28T11:57:46.294Z,12.87
2022-09-28T12:00:15.488Z,13.25
2022-09-28T12:02:52.826Z,13.04
2022-09-28T12:05:25.501Z,13.34
2022-09-28T12:07:57.120Z,13.77
2022-09-28T12:11:03.447Z,13.46
2022-09-28T12:14:00.000Z,13.32
2022-09-28T12:19:21.855Z,13.60
2022-09-28T12:21:51.569Z,13.33
2022-09-28T12:24:22.744Z,14.13
2022-09-28T12:26:53.133Z,13.80
2022-09-28T12:29:23.850Z,14.21
2022-09-28T12:31:56.651Z,14.09
2022-09-28T12:34:24.692Z,14.27
2022-09-28T12:37:02.107Z,14.28
2022-09-28T12:39:56.929Z,13.50
2022-09-28T12:42:31.569Z,12.98
2022-09-28T12:45:12.312Z,13.19
2022-09-28T12:48:07.739Z,13.43
2022-09-28T12:50:40.273Z,13.26
2022-09-28T12:53:23.988Z,13.50
2022-09-28T12:56:00.519Z,13.26
2022-09-28T12:58:36.476Z,13.03
2022-09-28T13:01:09.606Z,12.98
2022-09-28T13:03:52.759Z,12.76
2022-09-28T13:06:30.270Z,12.64
2022-09-28T13:09:14.031Z,12.99
2022-09-28T13:11:51.855Z,13.17
2022-09-28T13:14:35.616Z,13.03
2022-09-28T13:17:09.532Z,13.02
2022-09-28T13:19:44.901Z,13.26
2022-09-28T13:22:21.075Z,13.24
2022-09-28T13:24:49.837Z,13.45
2022-09-28T13:27:24.544Z,13.82
2022-09-28T13:29:54.946Z,13.93
2022-09-28T13:32:26.792Z,13.66
2022-09-28T13:34:55.251Z,13.49
2022-09-28T13:37:24.896Z,13.69
2022-09-28T13:39:55.037Z,13.64
2022-09-28T13:42:47.407Z,14.58
2022-09-28T13:45:27.459Z,14.44
2022-09-28T13:48:02.775Z,14.15
2022-09-28T13:50:37.227Z,13.63
2022-09-28T13:53:09.083Z,13.46
2022-09-28T13:55:43.077Z,13.17
2022-09-28T13:58:18.045Z,13.38
2022-09-28T14:00:49.587Z,13.50
2022-09-28T14:03:25.679Z,13.53
2022-09-28T14:06:04.407Z,13.68
2022-09-28T14:08:34.663Z,13.76
2022-09-28T14:11:25.557Z,13.40
2022-09-28T14:14:02.275Z,13.40
2022-09-28T14:16:32.118Z,12.95
2022-09-28T14:19:02.495Z,12.94
2022-09-28T14:21:46.575Z,12.97
2022-09-28T14:24:30.163Z,12.95
2022-09-28T14:27:13.887Z,13.18
2022-09-28T14:29:43.502Z,12.92
2022-09-28T14:32:24.854Z,13.17
2022-09-28T14:34:57.819Z,14.10
2022-09-28T14:37:46.038Z,13.91
2022-09-28T14:40:36.276Z,14.77
2022-09-28T14:43:25.634Z,14.33
2022-09-28T14:46:23.178Z,14.87
2022-09-28T14:48:52.598Z,14.60
2022-09-28T14:51:35.489Z,14.15
2022-09-28T14:54:06.608Z,14.35
2022-09-28T14:56:40.129Z,14.94
2022-09-28T14:59:13.062Z,15.02
2022-09-28T15:01:52.067Z,14.44
2022-09-28T15:04:21.022Z,14.20
2022-09-28T15:06:50.223Z,14.17
2022-09-28T15:09:27.818Z,13.90
2022-09-28T15:12:00.036Z,13.55
2022-09-28T15:14:31.820Z,13.47
2022-09-28T15:17:03.376Z,13.52
2022-09-28T15:19:35.276Z,13.22
2022-09-28T15:22:03.344Z,13.60
2022-09-28T15:24:32.646Z,13.21
2022-09-28T15:27:01.005Z,13.11
2022-09-28T15:29:33.344Z,13.31
2022-09-28T15:32:03.899Z,13.14
2022-09-28T15:34:50.515Z,13.51
2022-09-28T15:37:22.035Z,12.87
2022-09-28T15:39:50.951Z,13.24
2022-09-28T15:42:19.480Z,13.43
2022-09-28T15:45:01.663Z,13.16
2022-09-28T15:47:32.853Z,12.93
2022-09-28T15:50:02.239Z,12.97
2022-09-28T15:52:35.933Z,12.83
2022-09-28T15:55:06.286Z,12.80
2022-09-28T15:57:36.780Z,12.88
2022-09-28T16:00:22.944Z,13.15
2022-09-28T16:03:06.366Z,13.12
2022-09-28T16:05:40.840Z,13.08
2022-09-28T16:08:14.841Z,12.98
2022-09-28T16:10:53.366Z,12.57
2022-09-28T16:13:24.259Z,12.55
2022-09-28T16:15:57.832Z,12.55
2022-09-28T16:18:27.819Z,12.19
2022-09-28T16:20:56.968Z,12.33
2022-09-28T16:23:26.762Z,12.57
2022-09-28T16:25:58.690Z,12.47
2022-09-28T16:28:48.646Z,12.17
2022-09-28T16:31:28.212Z,11.67
2022-09-28T16:33:59.560Z,11.79
2022-09-28T16:36:29.714Z,11.65
2022-09-28T16:38:57.723Z,12.11
2022-09-28T16:41:27.129Z,12.09
2022-09-28T16:44:00.932Z,11.91
2022-09-28T16:46:31.461Z,11.97
2022-09-28T16:49:03.048Z,12.08
2022-09-28T16:51:31.160Z,12.06
2022-09-28T16:54:18.370Z,11.94
2022-09-28T16:56:46.433Z,11.91
2022-09-28T16:59:14.662Z,11.90
2022-09-28T17:01:43.808Z,11.85
2022-09-28T17:04:13.365Z,12.04
2022-09-28T17:06:41.679Z,12.00
2022-09-28T17:09:09.955Z,11.98
2022-09-28T17:11:38.205Z,11.77
2022-09-28T17:14:06.252Z,11.25
2022-09-28T17:17:02.660Z,11.93
2022-09-28T17:19:24.379Z,11.04
2022-09-28T17:21:52.982Z,10.92
2022-09-28T17:24:21.425Z,11.01
2022-09-28T17:26:50.759Z,11.15
2022-09-28T17:29:19.070Z,10.84
2022-09-28T17:31:49.196Z,10.94
2022-09-28T17:34:17.288Z,10.96
2022-09-28T17:36:46.735Z,10.94
2022-09-28T17:39:15.680Z,11.18
2022-09-28T17:41:43.651Z,11.41
2022-09-28T17:44:16.291Z,10.84
2022-09-28T17:46:48.959Z,11.06
2022-09-28T17:49:17.487Z,11.02
2022-09-28T17:51:50.190Z,10.61
2022-09-28T17:54:20.843Z,10.62
2022-09-28T17:56:49.118Z,10.74
2022-09-28T17:59:18.249Z,10.81
2022-09-28T18:01:48.034Z,10.81
2022-09-28T18:04:39.824Z,10.62
2022-09-28T18:07:06.352Z,10.50
2022-09-28T18:09:34.380Z,10.48
2022-09-28T18:12:04.787Z,10.17
2022-09-28T18:14:32.757Z,10.04
2022-09-28T18:17:00.733Z,10.63
2022-09-28T18:19:32.326Z,10.78
2022-09-28T18:22:01.290Z,10.57
2022-09-28T18:24:32.337Z,10.42
2022-09-28T18:27:00.649Z,10.38
2022-09-28T18:29:32.933Z,10.37
2022-09-28T18:32:01.632Z,10.22
2022-09-28T18:34:29.620Z,10.77
2022-09-28T18:36:57.806Z,9.84
2022-09-28T18:39:26.500Z,10.03
2022-09-28T18:41:55.899Z,10.43
2022-09-28T18:44:26.141Z,9.73
2022-09-28T18:46:54.332Z,9.52
2022-09-28T18:49:22.386Z,9.82
2022-09-28T18:51:52.774Z,9.95
2022-09-28T18:54:23.057Z,10.30
2022-09-28T18:56:51.233Z,9.65
2022-09-28T18:59:21.017Z,9.49
2022-09-28T19:01:49.146Z,9.51
2022-09-28T19:04:17.231Z,9.68
2022-09-28T19:06:51.728Z,9.67
2022-09-28T19:09:20.749Z,9.69
2022-09-28T19:11:48.740Z,9.88
2022-09-28T19:14:17.595Z,9.73
2022-09-28T19:16:47.158Z,9.92
2022-09-28T19:19:15.784Z,9.60
2022-09-28T19:21:44.312Z,9.68
2022-09-28T19:24:14.028Z,9.63
2022-09-28T19:26:42.355Z,9.27
2022-09-28T19:29:10.905Z,9.33
2022-09-28T19:31:39.204Z,9.35
2022-09-28T19:34:11.785Z,9.56
2022-09-28T19:36:42.160Z,9.71
2022-09-28T19:39:14.185Z,9.45
2022-09-28T19:41:47.875Z,9.23
2022-09-28T19:44:24.238Z,9.12
2022-09-28T19:46:55.265Z,9.40
2022-09-28T19:49:27.837Z,9.48
2022-09-28T19:52:12.264Z,9.33
2022-09-28T19:54:41.108Z,9.05
2022-09-28T19:57:09.205Z,9.23
2022-09-28T19:59:37.733Z,8.93
2022-09-28T20:02:06.491Z,8.70
2022-09-28T20:04:35.906Z,9.04
2022-09-28T20:07:04.880Z,8.74
2022-09-28T20:09:33.034Z,8.84
2022-09-28T20:12:01.130Z,8.76
2022-09-28T20:14:33.984Z,8.90
2022-09-28T20:17:04.500Z,9.00
2022-09-28T20:19:32.651Z,9.17
2022-09-28T20:22:02.555Z,8.17
2022-09-28T20:24:31.066Z,8.08
2022-09-28T20:26:59.148Z,8.23
2022-09-28T20:29:27.127Z,8.58
2022-09-28T20:31:57.686Z,8.11
2022-09-28T20:34:25.692Z,8.76
2022-09-28T20:36:53.788Z,8.39
2022-09-28T20:39:23.147Z,8.00
2022-09-28T20:41:51.070Z,7.82
2022-09-28T20:44:19.202Z,8.17
2022-09-28T20:46:50.422Z,8.15
2022-09-28T20:49:20.743Z,8.30
2022-09-28T20:51:48.726Z,8.11
2022-09-28T20:54:16.931Z,7.85
2022-09-28T20:56:48.082Z,7.51
2022-09-28T20:59:16.382Z,7.66
2022-09-28T21:01:44.485Z,7.48
2022-09-28T21:04:12.662Z,7.26
2022-09-28T21:06:41.627Z,7.59
2022-09-28T21:09:10.455Z,7.42
2022-09-28T21:11:41.457Z,7.21
2022-09-28T21:14:11.080Z,7.50
2022-09-28T21:16:39.279Z,7.54
2022-09-28T21:19:07.255Z,7.56
2022-09-28T21:21:35.389Z,7.64
2022-09-28T21:24:03.361Z,7.43
2022-09-28T21:26:32.125Z,7.52
2022-09-28T21:29:01.060Z,7.35
2022-09-28T21:31:32.474Z,7.66
2022-09-28T21:34:00.899Z,7.37
2022-09-28T21:36:31.014Z,7.59
2022-09-28T21:38:59.074Z,7.76
2022-09-28T21:41:28.650Z,7.45
2022-09-28T21:43:58.985Z,7.50
2022-09-28T21:46:33.392Z,7.84
2022-09-28T21:49:03.306Z,7.40
2022-09-28T21:51:31.378Z,7.34
2022-09-28T21:53:59.307Z,7.38
2022-09-28T21:56:27.668Z,7.45
2022-09-28T21:58:55.623Z,7.11
2022-09-28T22:02:38.440Z,7.13
2022-09-28T22:05:07.536Z,7.37
2022-09-28T22:07:35.522Z,7.27
2022-09-28T22:10:03.622Z,7.24
2022-09-28T22:12:31.609Z,7.39
2022-09-28T22:14:59.729Z,7.36
2022-09-28T22:17:27.747Z,7.41
2022-09-28T22:19:57.124Z,7.37
2022-09-28T22:22:28.958Z,7.33
2022-09-28T22:24:57.222Z,7.07
2022-09-28T22:27:25.215Z,7.04
2022-09-28T22:29:53.197Z,6.86
2022-09-28T22:32:23.668Z,7.00
2022-09-28T22:34:51.655Z,6.83
2022-09-28T22:37:20.960Z,7.45
2022-09-28T22:39:48.983Z,7.14
2022-09-28T22:42:17.292Z,6.96
2022-09-28T22:44:46.439Z,7.07
2022-09-28T22:47:14.771Z,7.00
2022-09-28T22:49:44.873Z,6.98
2022-09-28T22:52:12.865Z,7.62
2022-09-28T22:54:42.184Z,7.46
2022-09-28T22:57:10.599Z,6.95
2022-09-28T22:59:38.573Z,6.61
2022-09-28T23:02:06.658Z,6.81
2022-09-28T23:04:34.645Z,6.85
2022-09-28T23:07:02.647Z,6.98
2022-09-28T23:09:33.005Z,6.75
2022-09-28T23:12:02.587Z,6.43
2022-09-28T23:14:30.604Z,6.40
2022-09-28T23:16:58.543Z,6.36
2022-09-28T23:19:26.533Z,6.52
2022-09-28T23:21:54.975Z,6.66
2022-09-28T23:24:22.979Z,6.66
2022-09-28T23:26:51.322Z,6.57
2022-09-28T23:29:23.188Z,6.74
2022-09-28T23:31:51.330Z,6.54
2022-09-28T23:34:19.396Z,6.94
2022-09-28T23:36:47.374Z,6.82
2022-09-28T23:39:15.359Z,6.79
2022-09-28T23:41:43.301Z,6.83
2022-09-28T23:44:11.321Z,6.98
2022-09-28T23:46:40.720Z,6.69
2022-09-28T23:49:09.554Z,6.71
2022-09-28T23:51:37.713Z,6.77
2022-09-28T23:54:06.629Z,6.82
2022-09-28T23:56:34.591Z,6.94
2022-09-28T23:59:02.543Z,6.92
